sensor_id;sensor_type;location;lat;lon;timestamp;temperature;humidity
1413;DHT22;701;52.526;13.408;2022-07-09T00:02:09;16.10;26.00
1413;DHT22;701;52.526;13.408;2022-07-09T00:04:35;16.00;25.90
1413;DHT22;701;52.526;13.408;2022-07-09T00:07:00;16.00;26.10
1413;DHT22;701;52.526;13.408;2022-07-09T00:09:26;15.90;26.00
1413;DHT22;701;52.526;13.408;2022-07-09T00:11:52;15.80;26.00
1413;DHT22;701;52.526;13.408;2022-07-09T00:14:18;15.80;26.10
1413;DHT22;701;52.526;13.408;2022-07-09T00:16:44;15.70;26.10
1413;DHT22;701;52.526;13.408;2022-07-09T00:19:09;15.70;26.20
1413;DHT22;701;52.526;13.408;2022-07-09T00:21:35;15.70;26.30
1413;DHT22;701;52.526;13.408;2022-07-09T00:24:00;15.60;26.40
1413;DHT22;701;52.526;13.408;2022-07-09T00:26:26;15.60;26.50
1413;DHT22;701;52.526;13.408;2022-07-09T00:28:51;15.60;26.60
1413;DHT22;701;52.526;13.408;2022-07-09T00:31:17;15.50;26.80
1413;DHT22;701;52.526;13.408;2022-07-09T00:33:43;15.50;26.80
1413;DHT22;701;52.526;13.408;2022-07-09T00:36:08;15.40;26.90
1413;DHT22;701;52.526;13.408;2022-07-09T00:38:34;15.40;27.10
1413;DHT22;701;52.526;13.408;2022-07-09T00:41:00;15.40;27.20
1413;DHT22;701;52.526;13.408;2022-07-09T00:43:26;15.40;27.30
1413;DHT22;701;52.526;13.408;2022-07-09T00:45:52;15.30;27.40
1413;DHT22;701;52.526;13.408;2022-07-09T00:48:18;15.30;27.40
1413;DHT22;701;52.526;13.408;2022-07-09T00:50:45;15.30;27.60
1413;DHT22;701;52.526;13.408;2022-07-09T00:53:14;15.20;27.50
1413;DHT22;701;52.526;13.408;2022-07-09T00:55:40;15.20;27.50
1413;DHT22;701;52.526;13.408;2022-07-09T00:58:07;15.10;27.50
1413;DHT22;701;52.526;13.408;2022-07-09T01:00:34;15.10;27.50
1413;DHT22;701;52.526;13.408;2022-07-09T01:03:00;15.10;27.70
1413;DHT22;701;52.526;13.408;2022-07-09T01:05:25;15.00;27.80
1413;DHT22;701;52.526;13.408;2022-07-09T01:07:51;15.00;28.10
1413;DHT22;701;52.526;13.408;2022-07-09T01:10:17;15.00;28.10
1413;DHT22;701;52.526;13.408;2022-07-09T01:12:44;14.90;28.20
1413;DHT22;701;52.526;13.408;2022-07-09T01:15:10;14.90;28.30
1413;DHT22;701;52.526;13.408;2022-07-09T01:17:39;14.80;28.30
1413;DHT22;701;52.526;13.408;2022-07-09T01:20:06;14.80;28.50
1413;DHT22;701;52.526;13.408;2022-07-09T01:22:32;14.80;28.70
1413;DHT22;701;52.526;13.408;2022-07-09T01:24:59;14.70;28.90
1413;DHT22;701;52.526;13.408;2022-07-09T01:27:25;14.70;28.90
1413;DHT22;701;52.526;13.408;2022-07-09T01:29:51;14.60;29.00
1413;DHT22;701;52.526;13.408;2022-07-09T01:32:17;14.60;29.40
1413;DHT22;701;52.526;13.408;2022-07-09T01:34:42;14.60;29.60
1413;DHT22;701;52.526;13.408;2022-07-09T01:37:08;14.60;29.70
1413;DHT22;701;52.526;13.408;2022-07-09T01:39:34;14.50;29.70
1413;DHT22;701;52.526;13.408;2022-07-09T01:42:00;14.50;29.90
1413;DHT22;701;52.526;13.408;2022-07-09T01:44:25;14.50;30.00
1413;DHT22;701;52.526;13.408;2022-07-09T01:46:51;14.40;30.10
1413;DHT22;701;52.526;13.408;2022-07-09T01:49:16;14.40;30.50
1413;DHT22;701;52.526;13.408;2022-07-09T01:51:42;14.40;30.60
1413;DHT22;701;52.526;13.408;2022-07-09T01:54:08;14.30;30.40
1413;DHT22;701;52.526;13.408;2022-07-09T01:56:33;14.30;30.50
1413;DHT22;701;52.526;13.408;2022-07-09T01:59:00;14.30;30.60
1413;DHT22;701;52.526;13.408;2022-07-09T02:01:26;14.30;31.00
1413;DHT22;701;52.526;13.408;2022-07-09T02:03:52;14.20;30.90
1413;DHT22;701;52.526;13.408;2022-07-09T02:06:18;14.10;31.70
1413;DHT22;701;52.526;13.408;2022-07-09T02:08:43;14.10;31.30
1413;DHT22;701;52.526;13.408;2022-07-09T02:11:09;14.10;31.30
1413;DHT22;701;52.526;13.408;2022-07-09T02:13:35;14.00;31.60
1413;DHT22;701;52.526;13.408;2022-07-09T02:16:01;14.00;31.80
1413;DHT22;701;52.526;13.408;2022-07-09T02:18:27;14.00;32.10
1413;DHT22;701;52.526;13.408;2022-07-09T02:20:53;14.00;32.40
1413;DHT22;701;52.526;13.408;2022-07-09T02:23:21;14.00;32.50
1413;DHT22;701;52.526;13.408;2022-07-09T02:25:47;13.90;33.00
1413;DHT22;701;52.526;13.408;2022-07-09T02:28:12;13.90;32.60
1413;DHT22;701;52.526;13.408;2022-07-09T02:30:38;13.90;32.70
1413;DHT22;701;52.526;13.408;2022-07-09T02:33:04;13.80;32.80
1413;DHT22;701;52.526;13.408;2022-07-09T02:35:29;13.80;32.90
1413;DHT22;701;52.526;13.408;2022-07-09T02:37:55;13.80;32.90
1413;DHT22;701;52.526;13.408;2022-07-09T02:40:21;13.80;33.10
1413;DHT22;701;52.526;13.408;2022-07-09T02:42:46;13.70;33.30
1413;DHT22;701;52.526;13.408;2022-07-09T02:45:12;13.70;33.50
1413;DHT22;701;52.526;13.408;2022-07-09T02:47:38;13.80;33.90
1413;DHT22;701;52.526;13.408;2022-07-09T02:50:04;13.90;34.00
1413;DHT22;701;52.526;13.408;2022-07-09T02:52:29;14.00;34.00
1413;DHT22;701;52.526;13.408;2022-07-09T02:54:55;14.00;33.60
1413;DHT22;701;52.526;13.408;2022-07-09T02:57:21;14.10;33.30
1413;DHT22;701;52.526;13.408;2022-07-09T02:59:46;14.30;33.00
1413;DHT22;701;52.526;13.408;2022-07-09T03:02:12;14.30;32.50
1413;DHT22;701;52.526;13.408;2022-07-09T03:04:37;14.40;32.00
1413;DHT22;701;52.526;13.408;2022-07-09T03:07:03;14.50;31.40
1413;DHT22;701;52.526;13.408;2022-07-09T03:09:28;14.60;31.00
1413;DHT22;701;52.526;13.408;2022-07-09T03:11:54;14.60;31.40
1413;DHT22;701;52.526;13.408;2022-07-09T03:14:20;14.70;30.80
1413;DHT22;701;52.526;13.408;2022-07-09T03:16:45;14.80;30.40
1413;DHT22;701;52.526;13.408;2022-07-09T03:19:11;14.80;30.00
1413;DHT22;701;52.526;13.408;2022-07-09T03:21:36;14.80;29.70
1413;DHT22;701;52.526;13.408;2022-07-09T03:24:02;14.90;29.50
1413;DHT22;701;52.526;13.408;2022-07-09T03:26:28;15.00;29.30
1413;DHT22;701;52.526;13.408;2022-07-09T03:28:54;15.00;29.10
1413;DHT22;701;52.526;13.408;2022-07-09T03:31:20;15.10;29.00
1413;DHT22;701;52.526;13.408;2022-07-09T03:33:45;15.20;28.90
1413;DHT22;701;52.526;13.408;2022-07-09T03:36:11;15.20;28.50
1413;DHT22;701;52.526;13.408;2022-07-09T03:38:36;15.20;28.30
1413;DHT22;701;52.526;13.408;2022-07-09T03:41:02;15.30;28.10
1413;DHT22;701;52.526;13.408;2022-07-09T03:43:27;15.30;27.80
1413;DHT22;701;52.526;13.408;2022-07-09T03:45:53;15.40;27.70
1413;DHT22;701;52.526;13.408;2022-07-09T03:48:20;15.50;27.80
1413;DHT22;701;52.526;13.408;2022-07-09T03:50:45;15.50;27.40
1413;DHT22;701;52.526;13.408;2022-07-09T03:53:11;15.50;27.20
1413;DHT22;701;52.526;13.408;2022-07-09T03:55:37;15.60;26.90
1413;DHT22;701;52.526;13.408;2022-07-09T03:58:03;15.60;26.70
1413;DHT22;701;52.526;13.408;2022-07-09T04:00:28;15.70;26.40
1413;DHT22;701;52.526;13.408;2022-07-09T04:02:54;15.60;26.00
1413;DHT22;701;52.526;13.408;2022-07-09T04:05:19;15.70;25.90
1413;DHT22;701;52.526;13.408;2022-07-09T04:07:46;15.70;25.80
1413;DHT22;701;52.526;13.408;2022-07-09T04:10:11;15.70;25.70
1413;DHT22;701;52.526;13.408;2022-07-09T04:12:37;15.70;25.60
1413;DHT22;701;52.526;13.408;2022-07-09T04:15:02;15.70;25.50
1413;DHT22;701;52.526;13.408;2022-07-09T04:17:28;15.80;25.50
1413;DHT22;701;52.526;13.408;2022-07-09T04:19:54;15.80;25.50
1413;DHT22;701;52.526;13.408;2022-07-09T04:22:19;15.90;25.30
1413;DHT22;701;52.526;13.408;2022-07-09T04:24:45;15.90;25.20
1413;DHT22;701;52.526;13.408;2022-07-09T04:27:10;16.00;25.10
1413;DHT22;701;52.526;13.408;2022-07-09T04:29:36;16.10;25.10
1413;DHT22;701;52.526;13.408;2022-07-09T04:32:02;16.10;24.80
1413;DHT22;701;52.526;13.408;2022-07-09T04:34:27;16.20;24.60
1413;DHT22;701;52.526;13.408;2022-07-09T04:36:53;16.30;24.70
1413;DHT22;701;52.526;13.408;2022-07-09T04:39:19;16.30;24.70
1413;DHT22;701;52.526;13.408;2022-07-09T04:41:44;16.30;24.70
1413;DHT22;701;52.526;13.408;2022-07-09T04:44:10;16.30;24.50
1413;DHT22;701;52.526;13.408;2022-07-09T04:46:41;16.40;24.50
1413;DHT22;701;52.526;13.408;2022-07-09T04:49:06;16.40;24.40
1413;DHT22;701;52.526;13.408;2022-07-09T04:51:32;16.50;24.30
1413;DHT22;701;52.526;13.408;2022-07-09T04:53:58;16.50;24.20
1413;DHT22;701;52.526;13.408;2022-07-09T04:56:23;16.60;24.20
1413;DHT22;701;52.526;13.408;2022-07-09T04:58:49;16.60;24.00
1413;DHT22;701;52.526;13.408;2022-07-09T05:01:19;16.60;24.00
1413;DHT22;701;52.526;13.408;2022-07-09T05:03:44;16.70;23.90
1413;DHT22;701;52.526;13.408;2022-07-09T05:06:18;16.70;23.80
1413;DHT22;701;52.526;13.408;2022-07-09T05:08:44;16.80;23.70
1413;DHT22;701;52.526;13.408;2022-07-09T05:11:09;16.80;23.50
1413;DHT22;701;52.526;13.408;2022-07-09T05:13:38;16.80;23.60
1413;DHT22;701;52.526;13.408;2022-07-09T05:16:06;16.80;23.60
1413;DHT22;701;52.526;13.408;2022-07-09T05:18:32;16.80;23.60
1413;DHT22;701;52.526;13.408;2022-07-09T05:20:57;16.90;23.70
1413;DHT22;701;52.526;13.408;2022-07-09T05:23:23;16.90;23.70
1413;DHT22;701;52.526;13.408;2022-07-09T05:25:49;17.00;23.70
1413;DHT22;701;52.526;13.408;2022-07-09T05:28:14;17.10;23.70
1413;DHT22;701;52.526;13.408;2022-07-09T05:30:41;17.10;24.10
1413;DHT22;701;52.526;13.408;2022-07-09T05:33:07;17.20;23.60
1413;DHT22;701;52.526;13.408;2022-07-09T05:35:32;17.40;23.50
1413;DHT22;701;52.526;13.408;2022-07-09T05:37:58;17.50;23.30
1413;DHT22;701;52.526;13.408;2022-07-09T05:40:24;17.50;23.10
1413;DHT22;701;52.526;13.408;2022-07-09T05:42:49;17.60;23.00
1413;DHT22;701;52.526;13.408;2022-07-09T05:45:15;17.70;22.90
1413;DHT22;701;52.526;13.408;2022-07-09T05:47:40;17.80;22.80
1413;DHT22;701;52.526;13.408;2022-07-09T05:50:07;17.90;22.70
1413;DHT22;701;52.526;13.408;2022-07-09T05:52:32;18.00;22.50
1413;DHT22;701;52.526;13.408;2022-07-09T05:54:58;18.20;22.30
1413;DHT22;701;52.526;13.408;2022-07-09T05:57:24;18.40;22.40
1413;DHT22;701;52.526;13.408;2022-07-09T05:59:50;18.80;21.80
1413;DHT22;701;52.526;13.408;2022-07-09T06:02:15;19.10;20.90
1413;DHT22;701;52.526;13.408;2022-07-09T06:04:41;19.20;20.20
1413;DHT22;701;52.526;13.408;2022-07-09T06:07:07;19.30;19.60
1413;DHT22;701;52.526;13.408;2022-07-09T06:09:32;19.30;19.40
1413;DHT22;701;52.526;13.408;2022-07-09T06:11:58;19.50;19.50
1413;DHT22;701;52.526;13.408;2022-07-09T06:14:24;19.80;19.00
1413;DHT22;701;52.526;13.408;2022-07-09T06:16:50;20.00;18.60
1413;DHT22;701;52.526;13.408;2022-07-09T06:19:16;20.20;18.00
1413;DHT22;701;52.526;13.408;2022-07-09T06:21:42;20.30;17.50
1413;DHT22;701;52.526;13.408;2022-07-09T06:24:08;20.40;17.30
1413;DHT22;701;52.526;13.408;2022-07-09T06:26:34;20.50;16.90
1413;DHT22;701;52.526;13.408;2022-07-09T06:29:00;20.60;16.50
1413;DHT22;701;52.526;13.408;2022-07-09T06:31:26;20.70;16.60
1413;DHT22;701;52.526;13.408;2022-07-09T06:33:52;20.90;16.60
1413;DHT22;701;52.526;13.408;2022-07-09T06:36:18;20.90;16.00
1413;DHT22;701;52.526;13.408;2022-07-09T06:38:43;21.00;15.80
1413;DHT22;701;52.526;13.408;2022-07-09T06:41:28;21.00;15.30
1413;DHT22;701;52.526;13.408;2022-07-09T06:43:53;21.10;15.30
1413;DHT22;701;52.526;13.408;2022-07-09T06:46:19;21.10;15.00
1413;DHT22;701;52.526;13.408;2022-07-09T06:48:45;21.10;14.90
1413;DHT22;701;52.526;13.408;2022-07-09T06:51:10;21.00;14.90
1413;DHT22;701;52.526;13.408;2022-07-09T06:53:36;21.10;15.00
1413;DHT22;701;52.526;13.408;2022-07-09T06:56:02;21.30;14.60
1413;DHT22;701;52.526;13.408;2022-07-09T06:58:28;21.50;14.40
1413;DHT22;701;52.526;13.408;2022-07-09T07:00:54;21.80;14.00
1413;DHT22;701;52.526;13.408;2022-07-09T07:03:19;22.10;13.70
1413;DHT22;701;52.526;13.408;2022-07-09T07:05:45;22.30;12.40
1413;DHT22;701;52.526;13.408;2022-07-09T07:08:10;22.30;12.30
1413;DHT22;701;52.526;13.408;2022-07-09T07:10:36;22.30;12.20
1413;DHT22;701;52.526;13.408;2022-07-09T07:13:02;22.30;12.10
1413;DHT22;701;52.526;13.408;2022-07-09T07:15:27;22.40;12.00
1413;DHT22;701;52.526;13.408;2022-07-09T07:17:53;22.40;11.90
1413;DHT22;701;52.526;13.408;2022-07-09T07:20:18;22.40;11.60
1413;DHT22;701;52.526;13.408;2022-07-09T07:22:48;22.40;11.60
1413;DHT22;701;52.526;13.408;2022-07-09T07:25:14;22.40;11.70
1413;DHT22;701;52.526;13.408;2022-07-09T07:27:39;22.50;11.60
1413;DHT22;701;52.526;13.408;2022-07-09T07:30:05;22.70;11.50
1413;DHT22;701;52.526;13.408;2022-07-09T07:32:31;22.80;11.20
1413;DHT22;701;52.526;13.408;2022-07-09T07:34:57;22.80;10.90
1413;DHT22;701;52.526;13.408;2022-07-09T07:37:22;22.90;10.80
1413;DHT22;701;52.526;13.408;2022-07-09T07:39:48;23.00;10.70
1413;DHT22;701;52.526;13.408;2022-07-09T07:42:14;23.30;10.70
1413;DHT22;701;52.526;13.408;2022-07-09T07:44:41;23.60;10.10
1413;DHT22;701;52.526;13.408;2022-07-09T07:47:06;23.80;9.70
1413;DHT22;701;52.526;13.408;2022-07-09T07:49:32;23.80;9.30
1413;DHT22;701;52.526;13.408;2022-07-09T07:51:58;23.60;9.10
1413;DHT22;701;52.526;13.408;2022-07-09T07:54:23;23.50;9.20
1413;DHT22;701;52.526;13.408;2022-07-09T07:56:49;23.30;9.50
1413;DHT22;701;52.526;13.408;2022-07-09T07:59:16;23.20;9.70
1413;DHT22;701;52.526;13.408;2022-07-09T08:01:42;23.10;10.00
1413;DHT22;701;52.526;13.408;2022-07-09T08:04:07;23.00;10.10
1413;DHT22;701;52.526;13.408;2022-07-09T08:06:35;22.80;10.30
1413;DHT22;701;52.526;13.408;2022-07-09T08:09:03;22.40;10.50
1413;DHT22;701;52.526;13.408;2022-07-09T08:11:29;22.10;11.10
1413;DHT22;701;52.526;13.408;2022-07-09T08:13:54;21.90;11.60
1413;DHT22;701;52.526;13.408;2022-07-09T08:16:20;21.70;12.00
1413;DHT22;701;52.526;13.408;2022-07-09T08:18:46;21.50;12.40
1413;DHT22;701;52.526;13.408;2022-07-09T08:21:11;21.50;12.90
1413;DHT22;701;52.526;13.408;2022-07-09T08:23:37;21.50;13.30
1413;DHT22;701;52.526;13.408;2022-07-09T08:26:20;21.60;13.40
1413;DHT22;701;52.526;13.408;2022-07-09T08:28:46;21.80;12.80
1413;DHT22;701;52.526;13.408;2022-07-09T08:31:12;22.10;12.70
1413;DHT22;701;52.526;13.408;2022-07-09T08:33:37;22.40;12.30
1413;DHT22;701;52.526;13.408;2022-07-09T08:36:03;22.70;11.70
1413;DHT22;701;52.526;13.408;2022-07-09T08:38:29;23.00;11.30
1413;DHT22;701;52.526;13.408;2022-07-09T08:40:57;23.10;10.80
1413;DHT22;701;52.526;13.408;2022-07-09T08:43:25;23.20;10.60
1413;DHT22;701;52.526;13.408;2022-07-09T08:45:53;23.20;10.60
1413;DHT22;701;52.526;13.408;2022-07-09T08:48:19;23.20;10.60
1413;DHT22;701;52.526;13.408;2022-07-09T08:50:46;23.30;10.60
1413;DHT22;701;52.526;13.408;2022-07-09T08:53:13;23.30;10.60
1413;DHT22;701;52.526;13.408;2022-07-09T08:55:41;23.50;10.50
1413;DHT22;701;52.526;13.408;2022-07-09T08:58:09;23.80;9.90
1413;DHT22;701;52.526;13.408;2022-07-09T09:00:35;23.90;9.70
1413;DHT22;701;52.526;13.408;2022-07-09T09:03:00;24.10;9.40
1413;DHT22;701;52.526;13.408;2022-07-09T09:05:26;24.30;9.20
1413;DHT22;701;52.526;13.408;2022-07-09T09:07:51;24.30;8.70
1413;DHT22;701;52.526;13.408;2022-07-09T09:10:21;24.30;8.60
1413;DHT22;701;52.526;13.408;2022-07-09T09:12:48;24.20;8.60
1413;DHT22;701;52.526;13.408;2022-07-09T09:15:17;24.10;8.80
1413;DHT22;701;52.526;13.408;2022-07-09T09:17:44;23.90;9.10
1413;DHT22;701;52.526;13.408;2022-07-09T09:20:11;23.60;9.60
1413;DHT22;701;52.526;13.408;2022-07-09T09:22:44;23.30;10.20
1413;DHT22;701;52.526;13.408;2022-07-09T09:25:16;23.00;10.60
1413;DHT22;701;52.526;13.408;2022-07-09T09:30:23;22.50;12.80
1413;DHT22;701;52.526;13.408;2022-07-09T09:33:03;22.40;13.60
1413;DHT22;701;52.526;13.408;2022-07-09T09:35:32;22.20;15.00
1413;DHT22;701;52.526;13.408;2022-07-09T09:37:58;21.90;15.40
1413;DHT22;701;52.526;13.408;2022-07-09T09:40:24;21.70;16.90
1413;DHT22;701;52.526;13.408;2022-07-09T09:42:50;21.30;18.40
1413;DHT22;701;52.526;13.408;2022-07-09T09:45:16;21.00;20.20
1413;DHT22;701;52.526;13.408;2022-07-09T09:47:46;20.70;21.60
1413;DHT22;701;52.526;13.408;2022-07-09T09:50:17;20.50;22.70
1413;DHT22;701;52.526;13.408;2022-07-09T09:52:48;20.50;23.20
1413;DHT22;701;52.526;13.408;2022-07-09T09:55:15;20.70;23.20
1413;DHT22;701;52.526;13.408;2022-07-09T09:57:42;21.00;22.80
1413;DHT22;701;52.526;13.408;2022-07-09T10:00:08;21.30;22.10
1413;DHT22;701;52.526;13.408;2022-07-09T10:02:35;21.60;20.90
1413;DHT22;701;52.526;13.408;2022-07-09T10:05:01;21.90;20.60
1413;DHT22;701;52.526;13.408;2022-07-09T10:07:27;22.50;20.00
1413;DHT22;701;52.526;13.408;2022-07-09T10:09:57;23.10;18.70
1413;DHT22;701;52.526;13.408;2022-07-09T10:12:32;23.90;17.20
1413;DHT22;701;52.526;13.408;2022-07-09T10:14:59;24.60;15.40
1413;DHT22;701;52.526;13.408;2022-07-09T10:17:25;25.20;14.20
1413;DHT22;701;52.526;13.408;2022-07-09T10:19:52;25.50;12.90
1413;DHT22;701;52.526;13.408;2022-07-09T10:22:19;25.60;12.10
1413;DHT22;701;52.526;13.408;2022-07-09T10:24:45;25.50;12.00
1413;DHT22;701;52.526;13.408;2022-07-09T10:27:12;25.30;11.70
1413;DHT22;701;52.526;13.408;2022-07-09T10:29:59;25.30;11.60
1413;DHT22;701;52.526;13.408;2022-07-09T10:32:32;25.40;11.00
1413;DHT22;701;52.526;13.408;2022-07-09T10:35:04;25.60;10.60
1413;DHT22;701;52.526;13.408;2022-07-09T10:37:43;25.90;10.20
1413;DHT22;701;52.526;13.408;2022-07-09T10:40:16;26.00;9.50
1413;DHT22;701;52.526;13.408;2022-07-09T10:42:44;26.20;9.60
1413;DHT22;701;52.526;13.408;2022-07-09T10:45:37;26.40;8.80
1413;DHT22;701;52.526;13.408;2022-07-09T10:48:04;26.60;8.20
1413;DHT22;701;52.526;13.408;2022-07-09T10:50:32;27.00;8.00
1413;DHT22;701;52.526;13.408;2022-07-09T10:52:58;27.30;7.30
1413;DHT22;701;52.526;13.408;2022-07-09T10:55:28;27.60;6.50
1413;DHT22;701;52.526;13.408;2022-07-09T10:57:54;27.90;5.40
1413;DHT22;701;52.526;13.408;2022-07-09T11:00:26;28.10;4.80
1413;DHT22;701;52.526;13.408;2022-07-09T11:02:53;28.20;3.70
1413;DHT22;701;52.526;13.408;2022-07-09T11:05:19;28.40;3.40
1413;DHT22;701;52.526;13.408;2022-07-09T11:07:55;28.40;3.00
1413;DHT22;701;52.526;13.408;2022-07-09T11:10:20;28.60;2.30
1413;DHT22;701;52.526;13.408;2022-07-09T11:12:49;28.60;2.60
1413;DHT22;701;52.526;13.408;2022-07-09T11:15:19;28.60;1.80
1413;DHT22;701;52.526;13.408;2022-07-09T11:17:54;28.60;1.70
1413;DHT22;701;52.526;13.408;2022-07-09T11:20:20;28.50;1.50
1413;DHT22;701;52.526;13.408;2022-07-09T11:22:47;28.30;1.60
1413;DHT22;701;52.526;13.408;2022-07-09T11:25:14;28.10;1.40
1413;DHT22;701;52.526;13.408;2022-07-09T11:27:41;28.00;1.50
1413;DHT22;701;52.526;13.408;2022-07-09T11:30:07;27.80;1.30
1413;DHT22;701;52.526;13.408;2022-07-09T11:32:37;27.60;1.20
1413;DHT22;701;52.526;13.408;2022-07-09T11:35:02;27.40;1.40
1413;DHT22;701;52.526;13.408;2022-07-09T11:37:28;27.30;1.40
1413;DHT22;701;52.526;13.408;2022-07-09T11:39:54;27.10;1.60
1413;DHT22;701;52.526;13.408;2022-07-09T11:42:19;27.10;1.90
1413;DHT22;701;52.526;13.408;2022-07-09T11:44:56;27.10;1.90
1413;DHT22;701;52.526;13.408;2022-07-09T11:47:35;27.20;1.50
1413;DHT22;701;52.526;13.408;2022-07-09T11:50:09;27.20;1.00
1413;DHT22;701;52.526;13.408;2022-07-09T11:52:36;27.20;1.00
1413;DHT22;701;52.526;13.408;2022-07-09T11:57:32;27.40;1.20
1413;DHT22;701;52.526;13.408;2022-07-09T11:59:58;27.30;1.00
1413;DHT22;701;52.526;13.408;2022-07-09T12:02:37;27.20;1.00
1413;DHT22;701;52.526;13.408;2022-07-09T12:05:05;27.10;1.30
1413;DHT22;701;52.526;13.408;2022-07-09T12:07:32;27.10;1.60
1413;DHT22;701;52.526;13.408;2022-07-09T12:09:59;27.10;1.60
1413;DHT22;701;52.526;13.408;2022-07-09T12:12:25;27.10;1.60
1413;DHT22;701;52.526;13.408;2022-07-09T12:14:51;26.90;1.80
1413;DHT22;701;52.526;13.408;2022-07-09T12:17:21;26.70;2.10
1413;DHT22;701;52.526;13.408;2022-07-09T12:19:47;26.60;2.40
1413;DHT22;701;52.526;13.408;2022-07-09T12:22:13;26.40;2.60
1413;DHT22;701;52.526;13.408;2022-07-09T12:24:39;26.20;2.80
1413;DHT22;701;52.526;13.408;2022-07-09T12:27:05;26.10;3.10
1413;DHT22;701;52.526;13.408;2022-07-09T12:29:30;25.90;4.20
1413;DHT22;701;52.526;13.408;2022-07-09T12:31:56;25.50;4.50
1413;DHT22;701;52.526;13.408;2022-07-09T12:34:22;25.20;5.20
1413;DHT22;701;52.526;13.408;2022-07-09T12:36:48;25.00;5.70
1413;DHT22;701;52.526;13.408;2022-07-09T12:39:14;24.80;5.90
1413;DHT22;701;52.526;13.408;2022-07-09T12:41:40;24.70;6.10
1413;DHT22;701;52.526;13.408;2022-07-09T12:44:05;24.80;6.20
1413;DHT22;701;52.526;13.408;2022-07-09T12:46:31;24.80;6.20
1413;DHT22;701;52.526;13.408;2022-07-09T12:48:56;24.70;6.20
1413;DHT22;701;52.526;13.408;2022-07-09T12:51:22;24.60;7.70
1413;DHT22;701;52.526;13.408;2022-07-09T12:53:48;24.40;8.30
1413;DHT22;701;52.526;13.408;2022-07-09T12:56:14;24.40;9.10
1413;DHT22;701;52.526;13.408;2022-07-09T12:58:40;24.50;9.30
1413;DHT22;701;52.526;13.408;2022-07-09T13:01:05;24.40;9.70
1413;DHT22;701;52.526;13.408;2022-07-09T13:03:31;24.30;10.00
1413;DHT22;701;52.526;13.408;2022-07-09T13:05:56;24.20;10.20
1413;DHT22;701;52.526;13.408;2022-07-09T13:08:22;24.10;10.70
1413;DHT22;701;52.526;13.408;2022-07-09T13:10:48;24.00;11.10
1413;DHT22;701;52.526;13.408;2022-07-09T13:13:13;23.90;11.90
1413;DHT22;701;52.526;13.408;2022-07-09T13:15:40;24.00;12.50
1413;DHT22;701;52.526;13.408;2022-07-09T13:18:05;24.10;13.10
1413;DHT22;701;52.526;13.408;2022-07-09T13:20:31;24.20;13.20
1413;DHT22;701;52.526;13.408;2022-07-09T13:22:57;24.30;13.30
1413;DHT22;701;52.526;13.408;2022-07-09T13:25:22;24.50;13.40
1413;DHT22;701;52.526;13.408;2022-07-09T13:27:48;24.60;13.00
1413;DHT22;701;52.526;13.408;2022-07-09T13:30:13;24.60;12.50
1413;DHT22;701;52.526;13.408;2022-07-09T13:32:40;24.60;11.70
1413;DHT22;701;52.526;13.408;2022-07-09T13:35:06;24.50;11.00
1413;DHT22;701;52.526;13.408;2022-07-09T13:37:31;24.50;10.80
1413;DHT22;701;52.526;13.408;2022-07-09T13:39:58;24.50;10.20
1413;DHT22;701;52.526;13.408;2022-07-09T13:42:24;24.50;9.80
1413;DHT22;701;52.526;13.408;2022-07-09T13:44:49;24.60;9.60
1413;DHT22;701;52.526;13.408;2022-07-09T13:47:15;24.70;9.20
1413;DHT22;701;52.526;13.408;2022-07-09T13:49:41;24.70;8.60
1413;DHT22;701;52.526;13.408;2022-07-09T13:52:06;24.70;8.20
1413;DHT22;701;52.526;13.408;2022-07-09T13:54:32;24.70;8.20
1413;DHT22;701;52.526;13.408;2022-07-09T13:56:57;24.80;8.20
1413;DHT22;701;52.526;13.408;2022-07-09T13:59:23;24.90;7.90
1413;DHT22;701;52.526;13.408;2022-07-09T14:01:49;25.10;7.90
1413;DHT22;701;52.526;13.408;2022-07-09T14:04:14;25.30;8.00
1413;DHT22;701;52.526;13.408;2022-07-09T14:06:40;25.30;7.30
1413;DHT22;701;52.526;13.408;2022-07-09T14:09:05;25.30;7.40
1413;DHT22;701;52.526;13.408;2022-07-09T14:11:31;25.30;7.60
1413;DHT22;701;52.526;13.408;2022-07-09T14:13:56;25.30;7.80
1413;DHT22;701;52.526;13.408;2022-07-09T14:16:23;25.40;7.50
1413;DHT22;701;52.526;13.408;2022-07-09T14:18:48;25.40;7.60
1413;DHT22;701;52.526;13.408;2022-07-09T14:21:14;25.40;7.50
1413;DHT22;701;52.526;13.408;2022-07-09T14:23:40;25.40;7.80
1413;DHT22;701;52.526;13.408;2022-07-09T14:26:07;25.30;8.10
1413;DHT22;701;52.526;13.408;2022-07-09T14:28:32;25.00;7.90
1413;DHT22;701;52.526;13.408;2022-07-09T14:30:58;24.80;8.50
1413;DHT22;701;52.526;13.408;2022-07-09T14:33:24;24.90;8.90
1413;DHT22;701;52.526;13.408;2022-07-09T14:35:50;25.00;9.00
1413;DHT22;701;52.526;13.408;2022-07-09T14:38:15;25.10;8.80
1413;DHT22;701;52.526;13.408;2022-07-09T14:40:41;25.20;8.80
1413;DHT22;701;52.526;13.408;2022-07-09T14:43:06;25.20;8.40
1413;DHT22;701;52.526;13.408;2022-07-09T14:45:32;25.10;8.30
1413;DHT22;701;52.526;13.408;2022-07-09T14:47:57;24.80;8.50
1413;DHT22;701;52.526;13.408;2022-07-09T14:50:23;24.60;8.90
1413;DHT22;701;52.526;13.408;2022-07-09T14:52:49;24.40;9.20
1413;DHT22;701;52.526;13.408;2022-07-09T14:55:14;24.40;9.50
1413;DHT22;701;52.526;13.408;2022-07-09T14:57:40;24.50;9.30
1413;DHT22;701;52.526;13.408;2022-07-09T15:00:06;24.70;8.70
1413;DHT22;701;52.526;13.408;2022-07-09T15:02:35;24.90;8.20
1413;DHT22;701;52.526;13.408;2022-07-09T15:05:00;25.10;7.90
1413;DHT22;701;52.526;13.408;2022-07-09T15:07:26;25.30;7.30
1413;DHT22;701;52.526;13.408;2022-07-09T15:09:51;25.40;6.80
1413;DHT22;701;52.526;13.408;2022-07-09T15:12:18;25.30;6.50
1413;DHT22;701;52.526;13.408;2022-07-09T15:14:44;25.10;6.10
1413;DHT22;701;52.526;13.408;2022-07-09T15:17:09;24.90;6.30
1413;DHT22;701;52.526;13.408;2022-07-09T15:19:35;24.70;6.20
1413;DHT22;701;52.526;13.408;2022-07-09T15:22:00;24.50;6.20
1413;DHT22;701;52.526;13.408;2022-07-09T15:24:26;24.40;6.20
1413;DHT22;701;52.526;13.408;2022-07-09T15:26:52;24.20;6.00
1413;DHT22;701;52.526;13.408;2022-07-09T15:29:17;24.00;6.10
1413;DHT22;701;52.526;13.408;2022-07-09T15:31:43;24.00;6.70
1413;DHT22;701;52.526;13.408;2022-07-09T15:34:09;23.90;6.00
1413;DHT22;701;52.526;13.408;2022-07-09T15:36:34;24.00;5.70
1413;DHT22;701;52.526;13.408;2022-07-09T15:39:00;24.00;5.70
1413;DHT22;701;52.526;13.408;2022-07-09T15:41:25;23.90;5.70
1413;DHT22;701;52.526;13.408;2022-07-09T15:43:52;23.90;5.90
1413;DHT22;701;52.526;13.408;2022-07-09T15:46:17;23.90;6.10
1413;DHT22;701;52.526;13.408;2022-07-09T15:48:43;24.00;6.20
1413;DHT22;701;52.526;13.408;2022-07-09T15:51:08;23.90;6.30
1413;DHT22;701;52.526;13.408;2022-07-09T15:53:34;23.90;6.70
1413;DHT22;701;52.526;13.408;2022-07-09T15:56:00;23.70;7.00
1413;DHT22;701;52.526;13.408;2022-07-09T15:58:25;23.60;7.00
1413;DHT22;701;52.526;13.408;2022-07-09T16:00:51;23.50;7.30
1413;DHT22;701;52.526;13.408;2022-07-09T16:03:17;23.50;7.80
1413;DHT22;701;52.526;13.408;2022-07-09T16:05:42;23.50;8.00
1413;DHT22;701;52.526;13.408;2022-07-09T16:08:08;23.40;8.30